Weather at Cheb Airport

Public forecast

Using degrees Celsius for public forecast. Weather courtesy of forecast.io.

Closest aviation weather report (METAR) to Cheb Airport

Closest report is Karlovy Vary International Airport, 21.0 nm (39.0 km) ENE. Retrieved 2021/01/18 22:00 UTC (6 minutes ago):

LKKV 182200Z 26008KT 220V280 6000 -SN BKN006 OVC013 M01/M01 Q1018 R29///////

Closest aviation forecast (TAF) to Cheb Airport

Closest forecast is Karlovy Vary International Airport, 21.0 nm (39.0 km) ENE. Retrieved 2021/01/18 18:11 UTC (4 hours ago):

TAF LKKV 181700Z 1818/2000 25011KT 9999 BKN025 TEMPO 1818/2000 24012G24KT 3000 -SN BR BKN005 PROB40 TEMPO 1912/1918 1500 SNRA BR VV002